createdAt,value
2023-01-02T00:02:04.078Z,12.28
2023-01-02T00:04:30.432Z,12.26
2023-01-02T00:06:56.791Z,12.26
2023-01-02T00:09:25.372Z,12.28
2023-01-02T00:11:51.744Z,12.28
2023-01-02T00:14:18.122Z,12.29
2023-01-02T00:16:44.457Z,12.28
2023-01-02T00:19:10.798Z,12.30
2023-01-02T00:21:37.131Z,12.31
2023-01-02T00:24:03.667Z,12.26
2023-01-02T00:26:30.705Z,12.23
2023-01-02T00:28:57.296Z,12.26
2023-01-02T00:31:23.754Z,12.25
2023-01-02T00:33:50.155Z,12.24
2023-01-02T00:36:16.531Z,12.16
2023-01-02T00:38:42.876Z,12.21
2023-01-02T00:41:09.835Z,12.16
2023-01-02T00:43:36.880Z,12.17
2023-01-02T00:46:10.864Z,12.17
2023-01-02T00:48:38.457Z,12.24
2023-01-02T00:51:04.896Z,12.24
2023-01-02T00:53:31.267Z,12.22
2023-01-02T00:55:57.606Z,12.22
2023-01-02T00:58:24.014Z,12.21
2023-01-02T01:00:51.023Z,12.21
2023-01-02T01:03:17.494Z,12.29
2023-01-02T01:05:44.077Z,12.22
2023-01-02T01:08:10.477Z,12.19
2023-01-02T01:10:37.873Z,12.21
2023-01-02T01:13:05.068Z,12.23
2023-01-02T01:15:33.132Z,12.16
2023-01-02T01:17:59.525Z,12.08
2023-01-02T01:20:25.904Z,12.13
2023-01-02T01:22:52.388Z,12.01
2023-01-02T01:25:18.926Z,11.95
2023-01-02T01:27:45.292Z,11.89
2023-01-02T01:30:12.106Z,11.89
2023-01-02T01:32:38.962Z,11.88
2023-01-02T01:35:05.805Z,11.82
2023-01-02T01:37:32.142Z,11.76
2023-01-02T01:39:58.464Z,11.70
2023-01-02T01:42:24.825Z,11.65
2023-01-02T01:44:53.822Z,11.68
2023-01-02T01:47:25.518Z,11.66
2023-01-02T01:50:02.900Z,11.56
2023-01-02T01:52:33.790Z,11.55
2023-01-02T01:55:07.591Z,11.56
2023-01-02T01:57:39.138Z,11.53
2023-01-02T02:00:06.459Z,11.49
2023-01-02T02:02:33.547Z,11.41
2023-01-02T02:05:03.598Z,11.38
2023-01-02T02:07:30.786Z,11.39
2023-01-02T02:10:08.826Z,11.32
2023-01-02T02:12:35.358Z,11.28
2023-01-02T02:15:02.407Z,11.27
2023-01-02T02:17:58.369Z,11.30
2023-01-02T02:20:33.364Z,11.21
2023-01-02T02:23:28.743Z,11.21
2023-01-02T02:25:55.077Z,11.19
2023-01-02T02:28:40.032Z,11.21
2023-01-02T02:31:23.861Z,11.16
2023-01-02T02:34:02.987Z,11.20
2023-01-02T02:36:36.419Z,11.19
2023-01-02T02:39:14.858Z,11.22
2023-01-02T02:41:52.332Z,11.26
2023-01-02T02:44:33.204Z,11.20
2023-01-02T02:47:24.666Z,11.20
2023-01-02T02:50:05.314Z,11.22
2023-01-02T02:52:40.513Z,11.23
2023-01-02T02:55:12.534Z,11.20
2023-01-02T02:57:41.632Z,11.18
2023-01-02T03:00:10.604Z,11.30
2023-01-02T03:02:37.380Z,11.29
2023-01-02T03:05:07.710Z,11.23
2023-01-02T03:07:40.050Z,11.20
2023-01-02T03:10:31.828Z,11.19
2023-01-02T03:13:16.598Z,11.12
2023-01-02T03:16:19.653Z,11.09
2023-01-02T03:19:06.986Z,11.00
2023-01-02T03:21:46.124Z,10.97
2023-01-02T03:24:16.407Z,10.90
2023-01-02T03:26:46.389Z,10.92
2023-01-02T03:29:17.242Z,10.91
2023-01-02T03:31:48.474Z,10.85
2023-01-02T03:34:20.488Z,10.87
2023-01-02T03:36:51.015Z,10.88
2023-01-02T03:39:20.846Z,10.85
2023-01-02T03:42:11.628Z,10.88
2023-01-02T03:44:43.643Z,10.86
2023-01-02T03:47:27.579Z,10.86
2023-01-02T03:49:56.918Z,10.84
2023-01-02T03:52:26.160Z,10.78
2023-01-02T03:54:54.229Z,10.73
2023-01-02T03:57:28.605Z,10.74
2023-01-02T04:00:08.394Z,10.72
2023-01-02T04:02:59.313Z,10.77
2023-01-02T04:05:59.604Z,10.77
2023-01-02T04:08:30.934Z,10.76
2023-01-02T04:10:59.671Z,10.77
2023-01-02T04:13:32.644Z,10.84
2023-01-02T04:16:00.352Z,10.79
2023-01-02T04:18:31.242Z,10.78
2023-01-02T04:21:03.954Z,10.81
2023-01-02T04:23:40.886Z,10.79
2023-01-02T04:26:14.957Z,10.75
2023-01-02T04:28:41.611Z,10.72
2023-01-02T04:31:21.961Z,10.68
2023-01-02T04:33:55.508Z,10.67
2023-01-02T04:36:22.565Z,10.65
2023-01-02T04:38:49.222Z,10.68
2023-01-02T04:41:26.816Z,10.69
2023-01-02T04:43:54.924Z,10.73
2023-01-02T04:46:21.779Z,10.67
2023-01-02T04:48:48.186Z,10.65
2023-01-02T04:51:14.551Z,10.73
2023-01-02T04:53:40.978Z,10.65
2023-01-02T04:56:07.624Z,10.65
2023-01-02T04:58:33.982Z,10.59
2023-01-02T05:01:00.428Z,10.55
2023-01-02T05:03:26.843Z,10.50
2023-01-02T05:06:00.806Z,10.47
2023-01-02T05:08:29.619Z,10.52
2023-01-02T05:10:55.940Z,10.46
2023-01-02T05:13:22.406Z,10.40
2023-01-02T05:15:57.962Z,10.31
2023-01-02T05:18:24.392Z,10.33
2023-01-02T05:20:50.771Z,10.26
2023-01-02T05:23:35.779Z,10.30
2023-01-02T05:26:02.153Z,10.32
2023-01-02T05:28:33.695Z,10.28
2023-01-02T05:31:03.216Z,10.24
2023-01-02T05:33:29.705Z,10.26
2023-01-02T05:35:56.095Z,10.19
2023-01-02T05:38:22.457Z,10.16
2023-01-02T05:40:48.801Z,10.12
2023-01-02T05:43:15.162Z,10.13
2023-01-02T05:45:41.593Z,10.10
2023-01-02T05:48:07.974Z,10.13
2023-01-02T05:50:34.333Z,10.05
2023-01-02T05:53:00.692Z,10.05
2023-01-02T05:55:27.050Z,10.03
2023-01-02T05:57:58.523Z,10.05
2023-01-02T06:00:25.051Z,10.12
2023-01-02T06:02:51.545Z,10.08
2023-01-02T06:05:17.968Z,10.08
2023-01-02T06:07:44.380Z,10.08
2023-01-02T06:10:10.755Z,9.97
2023-01-02T06:12:37.109Z,9.91
2023-01-02T06:15:03.877Z,9.80
2023-01-02T06:17:30.236Z,9.81
2023-01-02T06:19:56.569Z,9.79
2023-01-02T06:22:22.905Z,9.77
2023-01-02T06:24:49.234Z,9.81
2023-01-02T06:27:15.610Z,9.78
2023-01-02T06:29:41.959Z,9.73
2023-01-02T06:32:08.325Z,9.68
2023-01-02T06:34:34.724Z,9.69
2023-01-02T06:37:04.631Z,9.52
2023-01-02T06:39:35.693Z,9.50
2023-01-02T06:42:02.023Z,9.54
2023-01-02T06:44:28.474Z,9.52
2023-01-02T06:46:54.807Z,9.45
2023-01-02T06:49:21.175Z,9.46
2023-01-02T06:51:47.526Z,9.39
2023-01-02T06:54:13.939Z,9.35
2023-01-02T06:56:40.345Z,9.28
2023-01-02T06:59:06.822Z,9.34
2023-01-02T07:01:33.203Z,9.31
2023-01-02T07:03:59.603Z,9.31
2023-01-02T07:06:27.759Z,9.41
2023-01-02T07:08:54.154Z,9.36
2023-01-02T07:11:23.072Z,9.34
2023-01-02T07:13:51.448Z,9.34
2023-01-02T07:16:19.321Z,9.37
2023-01-02T07:18:46.327Z,9.35
2023-01-02T07:21:14.153Z,9.31
2023-01-02T07:23:41.507Z,9.29
2023-01-02T07:26:08.825Z,9.31
2023-01-02T07:28:36.510Z,9.29
2023-01-02T07:31:08.710Z,9.30
2023-01-02T07:33:35.501Z,9.28
2023-01-02T07:36:04.787Z,9.29
2023-01-02T07:38:31.707Z,9.22
2023-01-02T07:40:58.077Z,9.28
2023-01-02T07:43:24.571Z,9.21
2023-01-02T07:45:51.243Z,9.17
2023-01-02T07:48:18.496Z,9.15
2023-01-02T07:50:45.326Z,9.13
2023-01-02T07:53:11.959Z,9.08
2023-01-02T07:55:38.294Z,9.16
2023-01-02T07:58:04.711Z,9.17
2023-01-02T08:00:31.045Z,9.16
2023-01-02T08:02:57.395Z,9.10
2023-01-02T08:05:23.765Z,9.07
2023-01-02T08:07:50.197Z,9.03
2023-01-02T08:10:16.575Z,9.07
2023-01-02T08:12:43.025Z,9.01
2023-01-02T08:15:09.766Z,9.01
2023-01-02T08:17:36.176Z,9.06
2023-01-02T08:20:07.634Z,9.01
2023-01-02T08:22:34.750Z,9.07
2023-01-02T08:25:01.286Z,9.07
2023-01-02T08:27:27.684Z,9.09
2023-01-02T08:29:54.027Z,9.04
2023-01-02T08:32:20.508Z,9.05
2023-01-02T08:34:46.874Z,9.07
2023-01-02T08:37:13.426Z,9.09
2023-01-02T08:39:39.799Z,9.17
2023-01-02T08:42:06.164Z,9.22
2023-01-02T08:44:34.432Z,9.26
2023-01-02T08:47:00.777Z,9.28
2023-01-02T08:49:27.184Z,9.34
2023-01-02T08:51:53.558Z,9.27
2023-01-02T08:54:19.960Z,9.20
2023-01-02T08:56:46.341Z,9.17
2023-01-02T08:59:12.779Z,9.22
2023-01-02T09:01:39.808Z,9.20
2023-01-02T09:04:11.899Z,9.22
2023-01-02T09:06:39.113Z,9.23
2023-01-02T09:09:11.665Z,9.31
2023-01-02T09:11:43.306Z,9.30
2023-01-02T09:14:09.700Z,9.28
2023-01-02T09:16:36.397Z,9.32
2023-01-02T09:19:03.345Z,9.37
2023-01-02T09:21:30.227Z,9.39
2023-01-02T09:23:56.806Z,9.37
2023-01-02T09:26:23.163Z,9.49
2023-01-02T09:28:49.549Z,9.43
2023-01-02T09:31:18.217Z,9.42
2023-01-02T09:33:46.118Z,9.46
2023-01-02T09:36:14.488Z,9.36
2023-01-02T09:38:41.211Z,9.47
2023-01-02T09:41:34.939Z,9.48
2023-01-02T09:44:04.244Z,9.51
2023-01-02T09:46:36.530Z,9.59
2023-01-02T09:49:04.123Z,9.60
2023-01-02T09:51:30.927Z,9.58
2023-01-02T09:53:57.451Z,9.58
2023-01-02T09:56:33.741Z,9.51
2023-01-02T09:59:11.139Z,9.43
2023-01-02T10:02:03.279Z,9.44
2023-01-02T10:04:55.200Z,9.44
2023-01-02T10:07:33.350Z,9.50
2023-01-02T10:10:09.995Z,9.63
2023-01-02T10:12:58.754Z,9.75
2023-01-02T10:15:28.101Z,9.95
2023-01-02T10:18:20.498Z,9.93
2023-01-02T10:21:03.274Z,9.90
2023-01-02T10:23:55.947Z,9.87
2023-01-02T10:26:27.617Z,9.82
2023-01-02T10:29:07.491Z,9.81
2023-01-02T10:32:20.547Z,9.75
2023-01-02T10:35:05.554Z,9.78
2023-01-02T10:37:32.285Z,9.74
2023-01-02T10:39:58.723Z,9.67
2023-01-02T10:42:25.290Z,9.68
2023-01-02T10:44:52.315Z,9.68
2023-01-02T10:47:32.560Z,9.72
2023-01-02T10:50:00.779Z,9.59
2023-01-02T10:52:35.834Z,9.63
2023-01-02T10:55:03.177Z,9.51
2023-01-02T10:58:02.814Z,9.57
2023-01-02T11:00:31.202Z,9.51
2023-01-02T11:03:00.120Z,9.49
2023-01-02T11:05:29.307Z,9.55
2023-01-02T11:07:56.268Z,9.60
2023-01-02T11:10:32.061Z,9.63
2023-01-02T11:13:13.763Z,9.62
2023-01-02T11:15:51.622Z,9.65
2023-01-02T11:18:24.567Z,9.66
2023-01-02T11:20:54.006Z,9.56
2023-01-02T11:23:25.371Z,9.57
2023-01-02T11:25:53.445Z,9.57
2023-01-02T11:28:34.189Z,9.51
2023-01-02T11:31:07.167Z,9.54
2023-01-02T11:33:35.136Z,9.52
2023-01-02T11:36:04.495Z,9.49
2023-01-02T11:38:51.441Z,9.43
2023-01-02T11:42:09.876Z,9.42
2023-01-02T11:44:49.088Z,9.42
2023-01-02T11:47:16.908Z,9.40
2023-01-02T11:49:47.093Z,9.43
2023-01-02T11:52:16.616Z,9.38
2023-01-02T11:54:49.838Z,9.39
2023-01-02T11:57:29.196Z,9.45
2023-01-02T11:59:58.397Z,9.50
2023-01-02T12:02:32.470Z,9.47
2023-01-02T12:04:58.847Z,9.51
2023-01-02T12:07:44.063Z,9.60
2023-01-02T12:10:33.875Z,9.56
2023-01-02T12:13:18.292Z,9.56
2023-01-02T12:16:02.034Z,9.71
2023-01-02T12:18:47.228Z,9.75
2023-01-02T12:21:35.420Z,9.79
2023-01-02T12:24:20.244Z,9.77
2023-01-02T12:27:08.641Z,9.83
2023-01-02T12:29:46.727Z,9.91
2023-01-02T12:32:38.275Z,9.92
2023-01-02T12:35:21.480Z,9.97
2023-01-02T12:37:52.975Z,10.08
2023-01-02T12:40:31.555Z,10.08
2023-01-02T12:43:28.264Z,10.08
2023-01-02T12:46:13.544Z,10.13
2023-01-02T12:49:02.621Z,10.13
2023-01-02T12:51:36.024Z,10.08
2023-01-02T12:54:18.737Z,10.05
2023-01-02T12:57:01.696Z,10.00
2023-01-02T12:59:57.197Z,9.98
2023-01-02T13:02:45.492Z,9.91
2023-01-02T13:05:17.118Z,9.95
2023-01-02T13:07:49.375Z,9.94
2023-01-02T13:10:20.241Z,9.90
2023-01-02T13:12:47.882Z,9.86
2023-01-02T13:15:26.492Z,9.91
2023-01-02T13:18:02.540Z,9.87
2023-01-02T13:20:43.857Z,9.83
2023-01-02T13:23:34.247Z,9.91
2023-01-02T13:26:16.228Z,9.93
2023-01-02T13:28:54.046Z,9.86
2023-01-02T13:31:46.121Z,9.88
2023-01-02T13:34:33.546Z,9.96
2023-01-02T13:37:06.915Z,9.90
2023-01-02T13:39:39.447Z,9.88
2023-01-02T13:42:36.710Z,9.78
2023-01-02T13:45:14.225Z,9.72
2023-01-02T13:47:48.465Z,9.71
2023-01-02T13:50:32.708Z,9.75
2023-01-02T13:53:11.246Z,9.79
2023-01-02T13:55:40.589Z,9.78
2023-01-02T13:58:17.571Z,9.77
2023-01-02T14:00:56.124Z,9.80
2023-01-02T14:03:23.141Z,9.80
2023-01-02T14:06:04.081Z,9.74
2023-01-02T14:08:40.819Z,9.72
2023-01-02T14:11:16.678Z,9.74
2023-01-02T14:13:53.605Z,9.77
2023-01-02T14:16:22.923Z,9.83
2023-01-02T14:19:04.528Z,9.84
2023-01-02T14:21:36.887Z,9.82
2023-01-02T14:24:18.536Z,9.90
2023-01-02T14:26:52.457Z,9.79
2023-01-02T14:29:19.781Z,9.82
2023-01-02T14:31:47.507Z,9.79
2023-01-02T14:34:23.534Z,9.98
2023-01-02T14:36:52.669Z,9.91
2023-01-02T14:39:24.661Z,9.86
2023-01-02T14:42:09.484Z,9.80
2023-01-02T14:44:44.441Z,9.77
2023-01-02T14:47:19.760Z,9.72
2023-01-02T14:49:54.143Z,9.76
2023-01-02T14:52:37.425Z,9.74
2023-01-02T14:55:23.398Z,9.81
2023-01-02T14:57:52.367Z,9.86
2023-01-02T15:00:24.492Z,9.71
2023-01-02T15:02:56.532Z,9.70
2023-01-02T15:05:37.397Z,9.63
2023-01-02T15:08:08.270Z,9.72
2023-01-02T15:10:53.653Z,9.62
2023-01-02T15:13:26.335Z,9.68
2023-01-02T15:15:58.400Z,9.68
2023-01-02T15:18:33.425Z,9.65
2023-01-02T15:21:08.046Z,9.63
2023-01-02T15:23:36.647Z,9.68
2023-01-02T15:26:32.651Z,9.72
2023-01-02T15:29:18.530Z,9.66
2023-01-02T15:31:51.699Z,9.79
2023-01-02T15:34:24.758Z,9.73
2023-01-02T15:36:51.610Z,9.79
2023-01-02T15:39:22.032Z,9.77
2023-01-02T15:41:55.050Z,9.72
2023-01-02T15:44:46.266Z,9.76
2023-01-02T15:47:14.320Z,9.75
2023-01-02T15:49:43.033Z,9.65
2023-01-02T15:52:35.876Z,9.58
2023-01-02T15:55:02.539Z,9.67
2023-01-02T15:57:32.409Z,9.63
2023-01-02T15:59:59.336Z,9.55
2023-01-02T16:02:44.141Z,9.49
2023-01-02T16:05:18.945Z,9.68
2023-01-02T16:07:50.767Z,9.56
2023-01-02T16:10:20.715Z,9.60
2023-01-02T16:12:52.093Z,9.65
2023-01-02T16:15:22.785Z,9.59
2023-01-02T16:17:49.849Z,9.70
2023-01-02T16:20:18.803Z,9.60
2023-01-02T16:23:05.468Z,9.61
2023-01-02T16:25:36.834Z,9.56
2023-01-02T16:28:34.704Z,9.67
2023-01-02T16:31:15.306Z,9.68
2023-01-02T16:33:43.464Z,9.65
2023-01-02T16:36:20.278Z,9.70
2023-01-02T16:38:49.619Z,9.52
2023-01-02T16:41:45.663Z,9.55
2023-01-02T16:44:14.658Z,9.51
2023-01-02T16:46:42.938Z,9.49
2023-01-02T16:49:18.267Z,9.50
2023-01-02T16:51:47.137Z,9.51
2023-01-02T16:54:15.086Z,9.50
2023-01-02T16:56:41.492Z,9.57
2023-01-02T16:59:07.946Z,9.61
2023-01-02T17:01:34.455Z,9.69
2023-01-02T17:04:00.889Z,9.76
2023-01-02T17:06:28.615Z,9.74
2023-01-02T17:08:54.983Z,9.96
2023-01-02T17:11:24.557Z,9.96
2023-01-02T17:13:52.179Z,9.93
2023-01-02T17:16:19.297Z,10.00
2023-01-02T17:18:45.907Z,9.96
2023-01-02T17:21:12.245Z,10.10
2023-01-02T17:23:38.694Z,10.22
2023-01-02T17:26:05.314Z,10.37
2023-01-02T17:28:31.694Z,10.30
2023-01-02T17:30:58.062Z,10.37
2023-01-02T17:33:24.486Z,10.25
2023-01-02T17:35:50.992Z,10.34
2023-01-02T17:38:17.442Z,10.39
2023-01-02T17:40:44.113Z,10.34
2023-01-02T17:43:10.492Z,10.33
2023-01-02T17:45:37.008Z,10.38
2023-01-02T17:48:10.638Z,10.59
2023-01-02T17:50:37.725Z,10.70
2023-01-02T17:53:04.114Z,11.00
2023-01-02T17:55:30.509Z,11.18
2023-01-02T17:57:56.906Z,11.20
2023-01-02T18:00:23.576Z,11.41
2023-01-02T18:02:52.459Z,11.44
2023-01-02T18:05:18.918Z,11.55
2023-01-02T18:07:45.283Z,11.72
2023-01-02T18:10:14.834Z,11.75
2023-01-02T18:12:46.327Z,11.81
2023-01-02T18:15:14.928Z,11.83
2023-01-02T18:17:41.421Z,11.92
2023-01-02T18:20:12.922Z,11.92
2023-01-02T18:22:46.109Z,12.09
2023-01-02T18:25:19.343Z,12.02
2023-01-02T18:27:46.759Z,12.11
2023-01-02T18:30:23.062Z,12.11
2023-01-02T18:32:52.715Z,11.90
2023-01-02T18:35:56.656Z,11.51
2023-01-02T18:38:41.824Z,11.32
2023-01-02T18:41:28.052Z,11.16
2023-01-02T18:44:18.018Z,11.15
2023-01-02T18:47:03.027Z,11.22
2023-01-02T18:49:41.881Z,11.46
2023-01-02T18:52:11.203Z,11.63
2023-01-02T18:54:41.515Z,11.65
2023-01-02T18:57:16.147Z,11.78
2023-01-02T18:59:44.080Z,12.11
2023-01-02T19:02:54.479Z,12.09
2023-01-02T19:05:32.975Z,12.07
2023-01-02T19:08:07.812Z,12.28
2023-01-02T19:10:38.927Z,12.35
2023-01-02T19:13:24.253Z,12.23
2023-01-02T19:15:59.899Z,12.27
2023-01-02T19:18:35.277Z,12.27
2023-01-02T19:21:04.674Z,12.34
2023-01-02T19:24:03.669Z,12.23
2023-01-02T19:26:38.911Z,12.23
2023-01-02T19:29:13.974Z,12.26
2023-01-02T19:31:52.021Z,12.37
2023-01-02T19:34:42.446Z,12.36
2023-01-02T19:37:11.858Z,12.34
2023-01-02T19:39:50.872Z,12.27
2023-01-02T19:42:20.868Z,12.32
2023-01-02T19:44:48.795Z,12.31
2023-01-02T19:47:16.306Z,12.23
2023-01-02T19:49:42.685Z,12.30
2023-01-02T19:52:12.480Z,12.26
2023-01-02T19:54:39.874Z,12.27
2023-01-02T19:57:07.681Z,12.21
2023-01-02T19:59:40.032Z,12.18
2023-01-02T20:02:09.936Z,12.08
2023-01-02T20:04:36.418Z,12.02
2023-01-02T20:07:02.791Z,12.09
2023-01-02T20:09:29.565Z,12.08
2023-01-02T20:12:14.436Z,12.09
2023-01-02T20:14:40.976Z,12.07
2023-01-02T20:17:08.108Z,12.05
2023-01-02T20:19:35.005Z,11.93
2023-01-02T20:22:02.368Z,11.93
2023-01-02T20:24:29.189Z,11.83
2023-01-02T20:26:57.716Z,11.73
2023-01-02T20:29:24.582Z,11.59
2023-01-02T20:31:51.460Z,11.39
2023-01-02T20:34:18.210Z,11.32
2023-01-02T20:36:44.896Z,11.17
2023-01-02T20:39:11.396Z,11.03
2023-01-02T20:41:41.265Z,10.87
2023-01-02T20:44:08.849Z,10.71
2023-01-02T20:46:35.655Z,10.46
2023-01-02T20:49:02.077Z,10.25
2023-01-02T20:51:30.176Z,9.99
2023-01-02T20:54:00.303Z,9.68
2023-01-02T20:56:27.980Z,9.54
2023-01-02T20:58:55.819Z,9.34
2023-01-02T21:01:23.144Z,9.14
2023-01-02T21:03:50.374Z,9.02
2023-01-02T21:06:17.181Z,8.98
2023-01-02T21:08:43.627Z,8.94
2023-01-02T21:11:10.121Z,8.91
2023-01-02T21:13:36.480Z,8.87
2023-01-02T21:16:03.154Z,8.84
2023-01-02T21:18:33.933Z,8.82
2023-01-02T21:21:04.629Z,8.80
2023-01-02T21:23:32.603Z,8.81
2023-01-02T21:25:59.337Z,8.77
2023-01-02T21:28:26.158Z,8.74
2023-01-02T21:30:53.317Z,8.73
2023-01-02T21:33:21.546Z,8.71
2023-01-02T21:35:49.928Z,8.72
2023-01-02T21:38:18.472Z,8.68
2023-01-02T21:40:45.006Z,8.68
2023-01-02T21:43:11.704Z,8.69
2023-01-02T21:45:38.395Z,8.69
2023-01-02T21:48:05.184Z,8.72
2023-01-02T21:50:31.640Z,8.68
2023-01-02T21:52:58.024Z,8.68
2023-01-02T21:55:24.958Z,8.73
2023-01-02T22:00:41.123Z,8.67
2023-01-02T22:03:07.595Z,8.73
2023-01-02T22:05:34.100Z,8.66
2023-01-02T22:08:00.528Z,8.57
2023-01-02T22:10:27.360Z,8.62
2023-01-02T22:12:54.389Z,8.64
2023-01-02T22:15:20.775Z,8.57
2023-01-02T22:17:47.112Z,8.56
2023-01-02T22:20:14.130Z,8.55
2023-01-02T22:22:41.469Z,8.57
2023-01-02T22:25:08.382Z,8.52
2023-01-02T22:27:34.785Z,8.49
2023-01-02T22:30:21.626Z,8.52
2023-01-02T22:32:49.033Z,8.47
2023-01-02T22:35:15.526Z,8.46
2023-01-02T22:37:42.016Z,8.47
2023-01-02T22:40:08.963Z,8.47
2023-01-02T22:43:10.151Z,8.51
2023-01-02T22:45:49.304Z,8.46
2023-01-02T22:48:17.355Z,8.47
2023-01-02T22:50:45.442Z,8.50
2023-01-02T22:53:33.651Z,8.50
2023-01-02T22:56:01.408Z,8.50
2023-01-02T22:58:28.361Z,8.43
2023-01-02T23:01:01.461Z,8.45
2023-01-02T23:03:29.925Z,8.44
2023-01-02T23:05:56.928Z,8.48
2023-01-02T23:08:23.382Z,8.45
2023-01-02T23:10:49.801Z,8.48
2023-01-02T23:13:16.178Z,8.54
2023-01-02T23:16:02.572Z,8.57
2023-01-02T23:18:53.211Z,8.52
2023-01-02T23:21:24.047Z,8.55
2023-01-02T23:23:50.880Z,8.61
2023-01-02T23:26:18.114Z,8.57
2023-01-02T23:31:31.339Z,8.58
2023-01-02T23:33:57.697Z,8.49
2023-01-02T23:36:24.483Z,8.46
2023-01-02T23:38:50.917Z,8.51
2023-01-02T23:41:17.590Z,8.44
2023-01-02T23:43:43.957Z,8.49
2023-01-02T23:46:10.540Z,8.47
2023-01-02T23:48:36.945Z,8.42
2023-01-02T23:51:04.287Z,8.50
2023-01-02T23:53:31.652Z,8.41
2023-01-02T23:55:58.310Z,8.43
2023-01-02T23:58:24.875Z,8.43
